PWSweather.com
Personal Weather Stations
Station Observations
W0CHP
Plainview, MN 55694

Plainview, MN 55694

Lat: 44.16640472, Lon: -92.16882324

Elevation: 1155

Station Type: HW: WX Station Bridge, Raspberry Pi and RF (APRS) via 144.390 MHz. SW: Xastir, APRX, WeeWX and Linux.

http://wx.w0chp.net

Latest ConditionsUpdated 3:10:00 AM CST Friday, Feb 22, 2019
Currently Today's Max Today's Min Today's Average
Temperature 9.9°F-12.3°C 9.9°F-12.3°C 6.3°F-14.3°C 7.7°F-13.5°C
Dew Point 9.5°F-12.5°C 9.5°F-12.5°C 5.9°F-14.5°C 7.2°F-13.8°C
Winds 1.6 mph S2.6 kmh S 1.6 mph -2.6 kmh - - 1.2 mph 1.9 kmh
Wind Gusts 3.0 mph4.8 kmh 3.0 mph4.8 kmh - -
Humidity 98% 98% 96% 98%
Pressure 30.51 in1033.2 mb 30.54 in1034.2 mb 30.51 in1033.2 mb -
Hour Temp Dew Point Humidity Winds Wind Gusts Pressure Precip Precip Rate Daily Precip Total
03:10 AM 9.9°F-12.3°C 9.5°F-12.5°C 98% 1.6 mph S2.6 kmh S 3.0 mph4.8 kmh 30.51 in1033.2 mb 0.00 in0.0 mm 0.00 in0.0 mm 0.00 in0.0 mm
03:04 AM 9.8°F-12.3°C 9.4°F-12.6°C 98% 1.0 mph SSE1.6 kmh SSE 1.0 mph1.6 kmh 30.51 in1033.2 mb 0.00 in0.0 mm 0.00 in0.0 mm 0.00 in0.0 mm
02:58 AM 9.8°F-12.3°C 9.4°F-12.6°C 98% 1.5 mph SSE2.4 kmh SSE 2.0 mph3.2 kmh 30.52 in1033.5 mb 0.00 in0.0 mm 0.00 in0.0 mm 0.00 in0.0 mm
02:52 AM 9.6°F-12.4°C 9.2°F-12.7°C 98% 1.0 mph SSE1.6 kmh SSE 1.0 mph1.6 kmh 30.52 in1033.5 mb 0.00 in0.0 mm 0.00 in0.0 mm 0.00 in0.0 mm
02:46 AM 9.1°F-12.7°C 8.7°F-12.9°C 98% - N N -- 30.52 in1033.5 mb 0.00 in0.0 mm 0.00 in0.0 mm 0.00 in0.0 mm
02:40 AM 9.0°F-12.8°C 8.6°F-13.0°C 98% - N N -- 30.51 in1033.2 mb 0.00 in0.0 mm 0.00 in0.0 mm 0.00 in0.0 mm
02:34 AM 9.0°F-12.8°C 8.6°F-13.0°C 98% - N N -- 30.52 in1033.5 mb 0.00 in0.0 mm 0.00 in0.0 mm 0.00 in0.0 mm
02:28 AM 9.0°F-12.8°C 8.6°F-13.0°C 98% - N N -- 30.52 in1033.5 mb 0.00 in0.0 mm 0.00 in0.0 mm 0.00 in0.0 mm
02:22 AM 8.6°F-13.0°C 8.2°F-13.2°C 98% 1.0 mph N1.6 kmh N 1.0 mph1.6 kmh 30.52 in1033.5 mb 0.00 in0.0 mm 0.00 in0.0 mm 0.00 in0.0 mm
02:16 AM 8.1°F-13.3°C 7.7°F-13.5°C 98% - N N -- 30.53 in1033.9 mb 0.00 in0.0 mm 0.00 in0.0 mm 0.00 in0.0 mm
02:10 AM 8.1°F-13.3°C 7.7°F-13.5°C 98% - N N -- 30.52 in1033.5 mb 0.00 in0.0 mm 0.00 in0.0 mm 0.00 in0.0 mm
02:04 AM 7.2°F-13.8°C 6.8°F-14.0°C 98% - N N -- 30.53 in1033.9 mb 0.00 in0.0 mm 0.00 in0.0 mm 0.00 in0.0 mm
01:58 AM 6.8°F-14.0°C 6.4°F-14.2°C 98% - N N -- 30.53 in1033.9 mb 0.00 in0.0 mm 0.00 in0.0 mm 0.00 in0.0 mm
01:52 AM 6.5°F-14.2°C 6.1°F-14.4°C 98% - N N -- 30.53 in1033.9 mb 0.00 in0.0 mm 0.00 in0.0 mm 0.00 in0.0 mm
01:46 AM 6.5°F-14.2°C 6.1°F-14.4°C 98% - N N -- 30.53 in1033.9 mb 0.00 in0.0 mm 0.00 in0.0 mm 0.00 in0.0 mm
01:40 AM 6.3°F-14.3°C 5.9°F-14.5°C 98% - N N -- 30.54 in1034.2 mb 0.00 in0.0 mm 0.00 in0.0 mm 0.00 in0.0 mm
01:34 AM 6.3°F-14.3°C 5.9°F-14.5°C 98% - N N -- 30.54 in1034.2 mb 0.00 in0.0 mm 0.00 in0.0 mm 0.00 in0.0 mm
01:28 AM 6.3°F-14.3°C 5.9°F-14.5°C 98% - N N -- 30.54 in1034.2 mb 0.00 in0.0 mm 0.00 in0.0 mm 0.00 in0.0 mm
01:22 AM 6.3°F-14.3°C 5.9°F-14.5°C 98% - N N -- 30.53 in1033.9 mb 0.00 in0.0 mm 0.00 in0.0 mm 0.00 in0.0 mm
01:16 AM 6.3°F-14.3°C 5.9°F-14.5°C 98% - N N -- 30.54 in1034.2 mb 0.00 in0.0 mm 0.00 in0.0 mm 0.00 in0.0 mm
01:10 AM 6.3°F-14.3°C 5.9°F-14.5°C 98% 1.0 mph W1.6 kmh W 1.0 mph1.6 kmh 30.54 in1034.2 mb 0.00 in0.0 mm 0.00 in0.0 mm 0.00 in0.0 mm
01:04 AM 6.3°F-14.3°C 5.9°F-14.5°C 98% 1.0 mph N1.6 kmh N 1.0 mph1.6 kmh 30.53 in1033.9 mb 0.00 in0.0 mm 0.00 in0.0 mm 0.00 in0.0 mm
12:58 AM 6.3°F-14.3°C 5.9°F-14.5°C 98% - N N -- 30.52 in1033.5 mb 0.00 in0.0 mm 0.00 in0.0 mm 0.00 in0.0 mm
12:52 AM 6.5°F-14.2°C 6.1°F-14.4°C 98% 1.0 mph WNW1.6 kmh WNW 1.0 mph1.6 kmh 30.52 in1033.5 mb 0.00 in0.0 mm 0.00 in0.0 mm 0.00 in0.0 mm
12:46 AM 6.8°F-14.0°C 6.4°F-14.2°C 98% - N N -- 30.53 in1033.9 mb 0.00 in0.0 mm 0.00 in0.0 mm 0.00 in0.0 mm
12:40 AM 7.0°F-13.9°C 6.6°F-14.1°C 98% - N N -- 30.52 in1033.5 mb 0.00 in0.0 mm 0.00 in0.0 mm 0.00 in0.0 mm
12:34 AM 7.3°F-13.7°C 6.4°F-14.2°C 96% 1.0 mph N1.6 kmh N 1.0 mph1.6 kmh 30.52 in1033.5 mb 0.00 in0.0 mm 0.00 in0.0 mm 0.00 in0.0 mm
12:28 AM 7.6°F-13.6°C 6.7°F-14.1°C 96% - N N -- 30.52 in1033.5 mb 0.00 in0.0 mm 0.00 in0.0 mm 0.00 in0.0 mm
12:22 AM 7.9°F-13.4°C 7.0°F-13.9°C 96% 1.0 mph W1.6 kmh W 1.0 mph1.6 kmh 30.52 in1033.5 mb 0.00 in0.0 mm 0.00 in0.0 mm 0.00 in0.0 mm
12:16 AM 8.1°F-13.3°C 7.2°F-13.8°C 96% 1.6 mph WNW2.6 kmh WNW 2.0 mph3.2 kmh 30.52 in1033.5 mb 0.00 in0.0 mm 0.00 in0.0 mm 0.00 in0.0 mm
12:10 AM 8.2°F-13.2°C 7.3°F-13.7°C 96% 1.2 mph W1.9 kmh W 2.0 mph3.2 kmh 30.52 in1033.5 mb 0.00 in0.0 mm 0.00 in0.0 mm 0.00 in0.0 mm
12:04 AM 8.7°F-12.9°C 7.8°F-13.4°C 96% 1.4 mph W2.3 kmh W 2.0 mph3.2 kmh 30.51 in1033.2 mb 0.00 in0.0 mm 0.00 in0.0 mm 0.00 in0.0 mm